createdAt,value
2018-07-17T00:00:46.161Z,0.00
2018-07-17T00:01:46.140Z,0.00
2018-07-17T00:02:46.153Z,0.00
2018-07-17T00:03:46.128Z,0.00
2018-07-17T00:04:46.120Z,0.00
2018-07-17T00:05:46.100Z,0.00
2018-07-17T00:06:46.090Z,0.00
2018-07-17T00:07:46.103Z,0.00
2018-07-17T00:08:46.068Z,0.00
2018-07-17T00:09:46.081Z,0.00
2018-07-17T00:10:46.060Z,0.00
2018-07-17T00:11:46.064Z,0.00
2018-07-17T00:12:46.073Z,0.00
2018-07-17T00:13:46.014Z,0.00
2018-07-17T00:14:46.004Z,0.00
2018-07-17T00:15:45.993Z,0.00
2018-07-17T00:16:45.942Z,0.00
2018-07-17T00:17:46.014Z,0.00
2018-07-17T00:18:45.973Z,0.00
2018-07-17T00:19:45.951Z,0.00
2018-07-17T00:20:45.951Z,0.00
2018-07-17T00:21:45.888Z,0.00
2018-07-17T00:22:45.945Z,0.00
2018-07-17T00:23:45.916Z,0.00
2018-07-17T00:24:45.893Z,0.00
2018-07-17T00:25:45.897Z,0.00
2018-07-17T00:26:45.883Z,0.00
2018-07-17T00:27:45.913Z,0.00
2018-07-17T00:28:45.868Z,0.00
2018-07-17T00:29:45.852Z,0.00
2018-07-17T00:30:45.836Z,0.00
2018-07-17T00:31:45.830Z,0.00
2018-07-17T00:32:45.826Z,0.00
2018-07-17T00:33:45.854Z,0.00
2018-07-17T00:34:45.792Z,0.00
2018-07-17T00:35:45.777Z,0.00
2018-07-17T00:36:45.767Z,0.00
2018-07-17T00:37:45.757Z,0.00
2018-07-17T00:38:45.770Z,0.00
2018-07-17T00:39:45.755Z,0.00
2018-07-17T00:40:45.767Z,0.00
2018-07-17T00:41:45.676Z,0.00
2018-07-17T00:42:45.706Z,0.00
2018-07-17T00:43:45.730Z,0.00
2018-07-17T00:44:45.684Z,0.00
2018-07-17T00:45:45.680Z,0.00
2018-07-17T00:46:45.661Z,0.00
2018-07-17T00:47:45.645Z,0.00
2018-07-17T00:48:45.670Z,0.00
2018-07-17T00:49:45.655Z,0.00
2018-07-17T00:50:45.623Z,0.00
2018-07-17T00:51:45.629Z,0.00
2018-07-17T00:52:45.596Z,0.00
2018-07-17T00:53:45.594Z,0.00
2018-07-17T00:54:45.606Z,0.00
2018-07-17T00:55:45.570Z,0.00
2018-07-17T00:56:45.568Z,0.00
2018-07-17T00:57:45.559Z,0.00
2018-07-17T00:58:45.574Z,0.00
2018-07-17T00:59:45.529Z,0.00
2018-07-17T01:00:45.507Z,0.00
2018-07-17T01:01:45.497Z,0.00
2018-07-17T01:02:45.487Z,0.00
2018-07-17T01:03:45.528Z,0.00
2018-07-17T01:04:45.468Z,0.00
2018-07-17T01:05:45.449Z,0.00
2018-07-17T01:06:45.453Z,0.00
2018-07-17T01:07:45.441Z,0.00
2018-07-17T01:08:45.447Z,0.00
2018-07-17T01:09:45.471Z,0.00
2018-07-17T01:10:45.352Z,0.00
2018-07-17T01:11:45.392Z,0.00
2018-07-17T01:12:45.378Z,0.00
2018-07-17T01:13:45.465Z,0.00
2018-07-17T01:14:45.365Z,0.00
2018-07-17T01:15:45.346Z,0.00
2018-07-17T01:16:45.298Z,0.00
2018-07-17T01:17:45.323Z,0.00
2018-07-17T01:18:45.350Z,0.00
2018-07-17T01:19:45.304Z,0.00
2018-07-17T01:20:45.304Z,0.00
2018-07-17T01:21:45.256Z,0.00
2018-07-17T01:22:45.269Z,0.00
2018-07-17T01:23:45.297Z,0.00
2018-07-17T01:24:45.256Z,0.00
2018-07-17T01:25:45.243Z,0.00
2018-07-17T01:26:45.240Z,0.00
2018-07-17T01:27:45.215Z,0.00
2018-07-17T01:28:45.228Z,0.00
2018-07-17T01:29:45.197Z,0.00
2018-07-17T01:30:45.183Z,0.00
2018-07-17T01:31:45.182Z,0.00
2018-07-17T01:32:45.177Z,0.00
2018-07-17T01:33:45.176Z,0.00
2018-07-17T01:34:45.138Z,0.00
2018-07-17T01:35:45.128Z,0.00
2018-07-17T01:36:45.115Z,0.00
2018-07-17T01:37:45.064Z,0.00
2018-07-17T01:38:45.129Z,0.00
2018-07-17T01:39:45.106Z,0.00
2018-07-17T01:40:45.077Z,0.00
2018-07-17T01:41:45.064Z,0.00
2018-07-17T01:42:45.058Z,0.00
2018-07-17T01:43:45.071Z,0.00
2018-07-17T01:44:45.042Z,0.00
2018-07-17T01:45:45.020Z,0.00
2018-07-17T01:46:45.020Z,0.00
2018-07-17T01:47:45.010Z,0.00
2018-07-17T01:48:45.029Z,0.00
2018-07-17T01:49:44.983Z,0.00
2018-07-17T01:50:44.997Z,0.00
2018-07-17T01:51:44.967Z,0.00
2018-07-17T01:52:44.908Z,0.00
2018-07-17T01:53:44.981Z,0.00
2018-07-17T01:54:44.953Z,0.00
2018-07-17T01:55:44.952Z,0.00
2018-07-17T01:56:44.926Z,0.00
2018-07-17T01:57:44.894Z,0.00
2018-07-17T01:58:44.952Z,0.00
2018-07-17T01:59:44.871Z,0.00
2018-07-17T02:00:44.868Z,0.00
2018-07-17T02:01:44.872Z,0.00
2018-07-17T02:02:44.858Z,0.00
2018-07-17T02:03:44.862Z,0.00
2018-07-17T02:04:44.860Z,0.00
2018-07-17T02:05:44.814Z,0.00
2018-07-17T02:06:44.797Z,0.00
2018-07-17T02:07:44.794Z,0.00
2018-07-17T02:08:44.802Z,0.00
2018-07-17T02:09:44.804Z,0.00
2018-07-17T02:10:44.752Z,0.00
2018-07-17T02:11:44.758Z,0.00
2018-07-17T02:12:44.755Z,0.00
2018-07-17T02:13:44.739Z,0.00
2018-07-17T02:14:44.765Z,0.00
2018-07-17T02:15:44.701Z,0.00
2018-07-17T02:16:44.692Z,0.00
2018-07-17T02:17:44.678Z,0.00
2018-07-17T02:18:44.717Z,0.00
2018-07-17T02:19:44.655Z,0.00
2018-07-17T02:20:44.685Z,0.00
2018-07-17T02:21:44.596Z,0.00
2018-07-17T02:22:44.627Z,0.00
2018-07-17T02:23:44.614Z,0.00
2018-07-17T02:24:44.600Z,0.00
2018-07-17T02:25:44.631Z,0.00
2018-07-17T02:26:44.542Z,0.00
2018-07-17T02:27:44.571Z,0.00
2018-07-17T02:28:44.558Z,0.00
2018-07-17T02:29:44.501Z,0.00
2018-07-17T02:30:44.575Z,0.00
2018-07-17T02:31:44.527Z,0.00
2018-07-17T02:32:44.470Z,0.00
2018-07-17T02:33:44.497Z,0.00
2018-07-17T02:34:44.511Z,0.00
2018-07-17T02:35:44.530Z,0.00
2018-07-17T02:36:44.474Z,0.00
2018-07-17T02:37:44.463Z,0.00
2018-07-17T02:38:44.443Z,0.00
2018-07-17T02:39:44.441Z,0.00
2018-07-17T02:40:44.432Z,0.00
2018-07-17T02:41:44.463Z,0.00
2018-07-17T02:42:44.405Z,0.00
2018-07-17T02:43:44.393Z,0.00
2018-07-17T02:44:44.386Z,0.00
2018-07-17T02:45:44.377Z,0.00
2018-07-17T02:46:44.393Z,0.00
2018-07-17T02:47:44.359Z,0.00
2018-07-17T02:48:44.361Z,0.00
2018-07-17T02:49:44.329Z,0.00
2018-07-17T02:50:44.316Z,0.00
2018-07-17T02:51:44.347Z,0.00
2018-07-17T02:52:44.300Z,0.00
2018-07-17T02:53:44.290Z,4.00
2018-07-17T02:54:44.236Z,4.00
2018-07-17T02:55:44.297Z,4.00
2018-07-17T02:56:44.214Z,4.00
2018-07-17T02:57:44.281Z,0.00
2018-07-17T02:58:44.237Z,4.00
2018-07-17T02:59:44.188Z,4.00
2018-07-17T03:00:44.207Z,4.00
2018-07-17T03:01:44.247Z,4.00
2018-07-17T03:02:44.216Z,8.00
2018-07-17T03:03:44.181Z,8.00
2018-07-17T03:04:44.189Z,8.00
2018-07-17T03:05:44.168Z,8.00
2018-07-17T03:06:44.147Z,12.00
2018-07-17T03:07:44.185Z,12.00
2018-07-17T03:08:44.122Z,12.00
2018-07-17T03:09:44.124Z,16.00
2018-07-17T03:10:44.112Z,20.00
2018-07-17T03:11:44.147Z,16.00
2018-07-17T03:12:44.134Z,24.00
2018-07-17T03:13:44.073Z,24.00
2018-07-17T03:14:44.067Z,28.00
2018-07-17T03:15:44.073Z,32.00
2018-07-17T03:16:44.039Z,32.00
2018-07-17T03:17:44.067Z,36.00
2018-07-17T03:18:44.026Z,40.00
2018-07-17T03:19:44.026Z,44.00
2018-07-17T03:20:44.012Z,48.00
2018-07-17T03:21:43.984Z,52.00
2018-07-17T03:22:43.971Z,56.00
2018-07-17T03:23:44.001Z,60.00
2018-07-17T03:24:44.069Z,68.00
2018-07-17T03:25:43.952Z,72.00
2018-07-17T03:26:43.959Z,80.00
2018-07-17T03:27:43.924Z,88.00
2018-07-17T03:28:43.954Z,96.00
2018-07-17T03:29:43.901Z,112.00
2018-07-17T03:30:43.845Z,120.00
2018-07-17T03:31:43.892Z,136.00
2018-07-17T03:32:43.902Z,148.00
2018-07-17T03:33:43.898Z,160.00
2018-07-17T03:34:43.880Z,180.00
2018-07-17T03:35:43.840Z,196.00
2018-07-17T03:36:43.829Z,212.00
2018-07-17T03:37:43.821Z,228.00
2018-07-17T03:38:43.847Z,248.00
2018-07-17T03:39:43.800Z,276.00
2018-07-17T03:40:43.781Z,296.00
2018-07-17T03:41:43.774Z,316.00
2018-07-17T03:42:43.758Z,332.00
2018-07-17T03:43:43.790Z,348.00
2018-07-17T03:44:43.739Z,364.00
2018-07-17T03:45:43.729Z,384.00
2018-07-17T03:46:43.723Z,412.00
2018-07-17T03:47:43.704Z,444.00
2018-07-17T03:48:43.668Z,488.00
2018-07-17T03:49:43.723Z,528.00
2018-07-17T03:50:43.675Z,576.00
2018-07-17T03:51:43.666Z,636.00
2018-07-17T03:52:43.615Z,708.00
2018-07-17T03:53:43.647Z,784.00
2018-07-17T03:54:43.758Z,852.00
2018-07-17T03:55:43.645Z,912.00
2018-07-17T03:56:43.611Z,968.00
2018-07-17T03:57:43.600Z,1028.00
2018-07-17T03:58:43.672Z,1104.00
2018-07-17T03:59:43.620Z,1184.00
2018-07-17T04:00:43.575Z,1268.00
2018-07-17T04:01:43.565Z,1364.00
2018-07-17T04:02:43.571Z,1472.00
2018-07-17T04:03:43.540Z,1588.00
2018-07-17T04:04:43.612Z,1688.00
2018-07-17T04:05:43.511Z,1772.00
2018-07-17T04:06:43.517Z,1848.00
2018-07-17T04:07:43.488Z,1936.00
2018-07-17T04:08:43.520Z,2028.00
2018-07-17T04:09:43.514Z,2144.00
2018-07-17T04:10:43.460Z,2276.00
2018-07-17T04:11:43.447Z,2420.00
2018-07-17T04:12:43.441Z,2548.00
2018-07-17T04:13:43.423Z,2688.00
2018-07-17T04:14:43.419Z,2812.00
2018-07-17T04:15:43.441Z,2916.00
2018-07-17T04:16:43.397Z,3008.00
2018-07-17T04:17:43.384Z,3084.00
2018-07-17T04:18:43.374Z,3128.00
2018-07-17T04:19:43.358Z,3156.00
2018-07-17T04:20:43.384Z,3192.00
2018-07-17T04:21:43.342Z,3240.00
2018-07-17T04:22:43.326Z,3308.00
2018-07-17T04:23:43.320Z,3392.00
2018-07-17T04:24:43.262Z,3504.00
2018-07-17T04:25:43.326Z,3576.00
2018-07-17T04:26:43.290Z,3604.00
2018-07-17T04:27:43.278Z,3608.00
2018-07-17T04:28:43.268Z,3596.00
2018-07-17T04:29:43.295Z,3596.00
2018-07-17T04:30:43.278Z,3616.00
2018-07-17T04:31:43.268Z,3660.00
2018-07-17T04:32:43.221Z,3748.00
2018-07-17T04:33:43.211Z,3856.00
2018-07-17T04:34:43.156Z,3988.00
2018-07-17T04:35:43.230Z,4184.00
2018-07-17T04:36:43.175Z,4392.00
2018-07-17T04:37:43.168Z,4544.00
2018-07-17T04:38:43.162Z,4700.00
2018-07-17T04:39:43.149Z,4884.00
2018-07-17T04:40:43.162Z,5108.00
2018-07-17T04:41:43.153Z,5428.00
2018-07-17T04:42:43.115Z,5548.00
2018-07-17T04:43:43.102Z,5528.00
2018-07-17T04:44:43.093Z,5572.00
2018-07-17T04:45:43.085Z,5612.00
2018-07-17T04:46:43.089Z,5628.00
2018-07-17T04:47:43.191Z,5648.00
2018-07-17T04:48:43.047Z,5744.00
2018-07-17T04:49:43.035Z,6160.00
2018-07-17T04:50:43.025Z,6720.00
2018-07-17T04:51:43.192Z,6440.00
2018-07-17T04:52:43.007Z,7028.00
2018-07-17T04:53:42.992Z,7712.00
2018-07-17T04:54:42.981Z,7328.00
2018-07-17T04:55:42.969Z,6792.00
2018-07-17T04:56:42.988Z,6832.00
2018-07-17T04:57:42.913Z,6940.00
2018-07-17T04:58:42.940Z,7060.00
2018-07-17T04:59:42.934Z,7224.00
2018-07-17T05:00:42.918Z,7488.00
2018-07-17T05:01:43.036Z,7788.00
2018-07-17T05:02:42.905Z,8096.00
2018-07-17T05:03:42.886Z,8288.00
2018-07-17T05:04:42.826Z,8432.00
2018-07-17T05:05:42.864Z,8472.00
2018-07-17T05:06:42.879Z,8444.00
2018-07-17T05:07:42.844Z,8384.00
2018-07-17T05:08:42.831Z,8332.00
2018-07-17T05:09:42.818Z,8368.00
2018-07-17T05:10:42.813Z,8468.00
2018-07-17T05:11:42.841Z,8572.00
2018-07-17T05:12:42.799Z,8664.00
2018-07-17T05:13:42.778Z,8772.00
2018-07-17T05:14:42.773Z,8892.00
2018-07-17T05:15:42.751Z,9036.00
2018-07-17T05:16:42.773Z,9192.00
2018-07-17T05:17:42.735Z,9352.00
2018-07-17T05:18:42.731Z,9520.00
2018-07-17T05:19:42.715Z,9664.00
2018-07-17T05:20:42.699Z,9788.00
2018-07-17T05:21:42.721Z,9888.00
2018-07-17T05:22:42.680Z,9960.00
2018-07-17T05:23:42.670Z,10004.00
2018-07-17T05:24:42.654Z,9996.00
2018-07-17T05:25:42.647Z,10036.00
2018-07-17T05:26:42.658Z,10428.00
2018-07-17T05:27:42.632Z,11008.00
2018-07-17T05:28:42.625Z,11180.00
2018-07-17T05:29:42.612Z,10424.00
2018-07-17T05:30:42.592Z,10060.00
2018-07-17T05:31:42.606Z,9804.00
2018-07-17T05:32:42.575Z,9680.00
2018-07-17T05:33:42.560Z,9620.00
2018-07-17T05:34:42.554Z,9556.00
2018-07-17T05:35:42.542Z,9476.00
2018-07-17T05:36:42.558Z,9416.00
2018-07-17T05:37:42.522Z,9404.00
2018-07-17T05:38:42.513Z,9416.00
2018-07-17T05:39:42.500Z,9352.00
2018-07-17T05:40:42.493Z,9316.00
2018-07-17T05:41:42.496Z,9304.00
2018-07-17T05:42:42.471Z,9296.00
2018-07-17T05:43:42.456Z,9324.00
2018-07-17T05:44:42.408Z,9424.00
2018-07-17T05:45:42.426Z,9096.00
2018-07-17T05:46:42.448Z,8956.00
2018-07-17T05:47:42.413Z,8944.00
2018-07-17T05:48:42.407Z,9060.00
2018-07-17T05:49:42.390Z,9216.00
2018-07-17T05:50:42.471Z,9436.00
2018-07-17T05:51:42.396Z,9764.00
2018-07-17T05:52:42.359Z,10064.00
2018-07-17T05:53:42.358Z,10348.00
2018-07-17T05:54:42.345Z,10648.00
2018-07-17T05:55:42.327Z,11024.00
2018-07-17T05:56:42.352Z,11376.00
2018-07-17T05:57:42.304Z,11720.00
2018-07-17T05:58:42.317Z,12032.00
2018-07-17T05:59:42.291Z,12204.00
2018-07-17T06:00:42.298Z,12308.00
2018-07-17T06:01:42.262Z,12404.00
2018-07-17T06:02:42.288Z,12596.00
2018-07-17T06:03:42.243Z,12872.00
2018-07-17T06:04:42.233Z,12808.00
2018-07-17T06:05:42.229Z,12736.00
2018-07-17T06:06:42.223Z,12716.00
2018-07-17T06:07:42.230Z,12748.00
2018-07-17T06:08:42.186Z,12776.00
2018-07-17T06:09:42.177Z,12788.00
2018-07-17T06:10:42.165Z,12796.00
2018-07-17T06:11:42.113Z,12840.00
2018-07-17T06:12:42.190Z,12908.00
2018-07-17T06:13:42.133Z,12968.00
2018-07-17T06:14:42.124Z,12996.00
2018-07-17T06:15:42.117Z,13016.00
2018-07-17T06:16:42.108Z,13048.00
2018-07-17T06:17:42.121Z,13120.00
2018-07-17T06:18:42.083Z,13224.00
2018-07-17T06:19:42.076Z,13324.00
2018-07-17T06:20:42.028Z,13396.00
2018-07-17T06:21:42.048Z,13468.00
2018-07-17T06:22:42.066Z,13632.00
2018-07-17T06:23:42.045Z,13832.00
2018-07-17T06:24:42.019Z,14096.00
2018-07-17T06:25:42.004Z,15000.00
2018-07-17T06:26:42.000Z,15576.00
2018-07-17T06:27:42.013Z,17408.00
2018-07-17T06:28:41.975Z,19904.00
2018-07-17T06:29:41.973Z,21664.00
2018-07-17T06:30:41.949Z,29952.00
2018-07-17T06:31:41.947Z,40608.00
2018-07-17T06:32:41.958Z,47008.00
2018-07-17T06:33:41.919Z,48672.00
2018-07-17T06:34:41.908Z,49088.00
2018-07-17T06:35:41.904Z,49088.00
2018-07-17T06:36:41.888Z,48736.00
2018-07-17T06:37:41.897Z,47904.00
2018-07-17T06:38:41.870Z,48832.00
2018-07-17T06:39:41.816Z,48320.00
2018-07-17T06:40:41.852Z,47584.00
2018-07-17T06:41:41.849Z,46656.00
2018-07-17T06:42:41.855Z,46176.00
2018-07-17T06:43:41.823Z,47360.00
2018-07-17T06:44:41.813Z,48992.00
2018-07-17T06:45:41.759Z,50208.00
2018-07-17T06:46:41.782Z,50880.00
2018-07-17T06:47:41.900Z,51168.00
2018-07-17T06:48:41.760Z,50464.00
2018-07-17T06:49:41.758Z,49984.00
2018-07-17T06:50:41.763Z,51168.00
2018-07-17T06:51:41.748Z,50720.00
2018-07-17T06:52:41.706Z,48800.00
2018-07-17T06:53:41.682Z,30368.00
2018-07-17T06:54:41.713Z,38016.00
2018-07-17T06:55:41.709Z,30368.00
2018-07-17T06:56:41.691Z,24608.00
2018-07-17T06:57:41.765Z,21472.00
2018-07-17T06:58:41.675Z,18720.00
2018-07-17T06:59:41.616Z,18944.00
2018-07-17T07:00:41.653Z,43552.00
2018-07-17T07:01:41.636Z,47904.00
2018-07-17T07:02:41.652Z,45632.00
2018-07-17T07:03:41.620Z,38496.00
2018-07-17T07:04:41.608Z,27776.00
2018-07-17T07:05:41.599Z,49280.00
2018-07-17T07:06:41.589Z,46848.00
2018-07-17T07:07:41.595Z,50848.00
2018-07-17T07:08:41.566Z,51584.00
2018-07-17T07:09:41.556Z,52192.00
2018-07-17T07:10:41.544Z,52800.00
2018-07-17T07:11:41.538Z,54240.00
2018-07-17T07:12:41.548Z,54624.00
2018-07-17T07:13:41.515Z,55232.00
2018-07-17T07:14:41.509Z,55104.00
2018-07-17T07:15:41.492Z,54624.00
2018-07-17T07:16:41.483Z,54560.00
2018-07-17T07:17:41.480Z,55520.00
2018-07-17T07:18:41.499Z,56992.00
2018-07-17T07:19:41.463Z,57600.00
2018-07-17T07:20:41.451Z,59584.00
2018-07-17T07:21:41.441Z,59840.00
2018-07-17T07:22:41.441Z,58848.00
2018-07-17T07:23:41.448Z,57504.00
2018-07-17T07:24:41.385Z,56384.00
2018-07-17T07:25:41.418Z,55040.00
2018-07-17T07:26:41.381Z,55168.00
2018-07-17T07:27:41.369Z,53632.00
2018-07-17T07:28:41.401Z,53536.00
2018-07-17T07:29:41.356Z,52928.00
2018-07-17T07:30:41.343Z,56704.00
2018-07-17T07:31:41.353Z,57856.00
2018-07-17T07:32:41.327Z,57568.00
2018-07-17T07:33:41.343Z,56160.00
2018-07-17T07:34:41.266Z,56384.00
2018-07-17T07:35:41.295Z,57216.00
2018-07-17T07:36:41.298Z,56160.00
2018-07-17T07:37:41.288Z,62624.00
2018-07-17T07:38:41.292Z,61536.00
2018-07-17T07:39:41.264Z,49472.00
2018-07-17T07:40:41.309Z,50400.00
2018-07-17T07:41:41.238Z,43296.00
2018-07-17T07:42:41.274Z,58080.00
2018-07-17T07:43:41.259Z,49344.00
2018-07-17T07:44:41.168Z,66080.00
2018-07-17T07:45:41.200Z,63968.00
2018-07-17T07:46:41.149Z,68256.00
2018-07-17T07:47:41.185Z,68448.00
2018-07-17T07:48:41.198Z,68704.00
2018-07-17T07:49:41.166Z,67040.00
2018-07-17T07:50:41.146Z,68192.00
2018-07-17T07:51:41.140Z,67648.00
2018-07-17T07:52:41.158Z,68160.00
2018-07-17T07:53:41.099Z,69440.00
2018-07-17T07:54:41.104Z,57472.00
2018-07-17T07:55:41.150Z,48928.00
2018-07-17T07:56:41.127Z,34112.00
2018-07-17T07:57:41.083Z,27680.00
2018-07-17T07:58:41.098Z,26240.00
2018-07-17T07:59:41.067Z,25536.00
2018-07-17T08:00:41.060Z,23296.00
2018-07-17T08:01:41.045Z,23616.00
2018-07-17T08:02:41.041Z,19744.00
2018-07-17T08:03:41.121Z,18592.00
2018-07-17T08:04:41.036Z,18048.00
2018-07-17T08:05:41.016Z,18112.00
2018-07-17T08:06:40.998Z,19104.00
2018-07-17T08:07:40.992Z,20544.00
2018-07-17T08:08:41.013Z,19904.00
2018-07-17T08:09:40.963Z,20512.00
2018-07-17T08:10:40.956Z,23680.00
2018-07-17T08:11:40.987Z,54112.00
2018-07-17T08:12:40.934Z,65536.00
2018-07-17T08:13:40.953Z,51616.00
2018-07-17T08:14:40.921Z,68832.00
2018-07-17T08:15:40.905Z,51968.00
2018-07-17T08:16:40.896Z,44672.00
2018-07-17T08:17:40.883Z,28864.00
2018-07-17T08:18:40.854Z,25024.00
2018-07-17T08:19:40.864Z,29056.00
2018-07-17T08:20:40.863Z,28768.00
2018-07-17T08:21:40.851Z,32608.00
2018-07-17T08:22:40.836Z,55488.00
2018-07-17T08:23:40.820Z,63456.00
2018-07-17T08:24:40.816Z,51104.00
2018-07-17T08:25:40.767Z,55296.00
2018-07-17T08:26:40.804Z,57696.00
2018-07-17T08:27:40.786Z,64608.00
2018-07-17T08:28:40.799Z,70144.00
2018-07-17T08:29:40.797Z,63904.00
2018-07-17T08:30:40.715Z,60896.00
2018-07-17T08:31:40.748Z,48960.00
2018-07-17T08:32:40.744Z,30400.00
2018-07-17T08:33:40.822Z,23840.00
2018-07-17T08:34:40.727Z,23520.00
2018-07-17T08:35:41.539Z,23776.00
2018-07-17T08:36:40.697Z,23200.00
2018-07-17T08:37:40.690Z,22976.00
2018-07-17T08:38:40.716Z,23552.00
2018-07-17T08:39:40.706Z,22528.00
2018-07-17T08:40:40.658Z,22592.00
2018-07-17T08:41:40.652Z,22336.00
2018-07-17T08:42:40.642Z,22368.00
2018-07-17T08:43:40.645Z,22336.00
2018-07-17T08:44:40.639Z,22560.00
2018-07-17T08:45:40.623Z,22368.00
2018-07-17T08:46:40.554Z,23072.00
2018-07-17T08:47:40.587Z,22848.00
2018-07-17T08:48:40.580Z,22208.00
2018-07-17T08:49:40.639Z,21696.00
2018-07-17T08:50:40.560Z,20672.00
2018-07-17T08:51:40.551Z,19904.00
2018-07-17T08:52:40.542Z,19296.00
2018-07-17T08:53:40.535Z,18752.00
2018-07-17T08:54:40.654Z,18240.00
2018-07-17T08:55:40.511Z,17528.00
2018-07-17T08:56:40.500Z,17280.00
2018-07-17T08:57:40.487Z,16824.00
2018-07-17T08:58:40.483Z,16388.00
2018-07-17T08:59:40.489Z,16012.00
2018-07-17T09:00:40.468Z,15692.00
2018-07-17T09:01:40.454Z,15388.00
2018-07-17T09:02:40.432Z,15104.00
2018-07-17T09:03:40.384Z,14872.00
2018-07-17T09:04:40.445Z,14732.00
2018-07-17T09:05:40.413Z,14680.00
2018-07-17T09:06:40.403Z,14680.00
2018-07-17T09:07:40.349Z,14704.00
2018-07-17T09:08:40.378Z,14636.00
2018-07-17T09:09:40.354Z,14536.00
2018-07-17T09:10:40.355Z,14404.00
2018-07-17T09:11:40.356Z,14272.00
2018-07-17T09:12:40.340Z,14156.00
2018-07-17T09:13:40.333Z,14056.00
2018-07-17T09:14:40.344Z,13984.00
2018-07-17T09:15:40.309Z,13892.00
2018-07-17T09:16:40.296Z,13816.00
2018-07-17T09:17:40.295Z,13772.00
2018-07-17T09:18:40.283Z,13780.00
2018-07-17T09:19:40.292Z,13724.00
2018-07-17T09:20:40.260Z,13648.00
2018-07-17T09:21:40.304Z,13476.00
2018-07-17T09:22:40.193Z,13424.00
2018-07-17T09:23:40.181Z,13352.00
2018-07-17T09:24:40.247Z,13252.00
2018-07-17T09:25:40.212Z,13204.00
2018-07-17T09:26:40.158Z,13128.00
2018-07-17T09:27:40.183Z,13096.00
2018-07-17T09:28:40.174Z,13036.00
2018-07-17T09:29:40.167Z,12904.00
2018-07-17T09:30:40.218Z,12824.00
2018-07-17T09:31:40.148Z,12720.00
2018-07-17T09:32:40.133Z,12760.00
2018-07-17T09:33:40.154Z,12828.00
2018-07-17T09:34:40.108Z,12908.00
2018-07-17T09:35:40.147Z,12732.00
2018-07-17T09:36:40.107Z,13296.00
2018-07-17T09:37:40.085Z,13720.00
2018-07-17T09:38:40.041Z,13672.00
2018-07-17T09:39:40.058Z,13684.00
2018-07-17T09:40:40.075Z,13476.00
2018-07-17T09:41:39.994Z,13536.00
2018-07-17T09:42:40.043Z,13424.00
2018-07-17T09:43:40.015Z,13412.00
2018-07-17T09:44:40.017Z,13384.00
2018-07-17T09:45:40.023Z,13356.00
2018-07-17T09:46:39.987Z,13300.00
2018-07-17T09:47:39.989Z,13124.00
2018-07-17T09:48:39.977Z,12816.00
2018-07-17T09:49:39.954Z,12464.00
2018-07-17T09:50:39.996Z,12312.00
2018-07-17T09:51:39.934Z,12260.00
2018-07-17T09:52:39.919Z,12488.00
2018-07-17T09:53:39.910Z,12652.00
2018-07-17T09:54:39.897Z,13204.00
2018-07-17T09:55:39.926Z,13724.00
2018-07-17T09:56:39.881Z,14296.00
2018-07-17T09:57:39.876Z,14744.00
2018-07-17T09:58:39.864Z,14952.00
2018-07-17T09:59:39.848Z,15028.00
2018-07-17T10:00:39.864Z,15048.00
2018-07-17T10:01:39.829Z,15052.00
2018-07-17T10:02:39.823Z,15084.00
2018-07-17T10:03:39.802Z,15120.00
2018-07-17T10:04:39.871Z,15088.00
2018-07-17T10:05:39.813Z,14988.00
2018-07-17T10:06:39.779Z,14804.00
2018-07-17T10:07:39.762Z,14612.00
2018-07-17T10:08:39.757Z,14356.00
2018-07-17T10:09:39.748Z,14160.00
2018-07-17T10:10:39.767Z,14044.00
2018-07-17T10:11:39.731Z,15016.00
2018-07-17T10:12:39.715Z,15704.00
2018-07-17T10:13:39.700Z,17088.00
2018-07-17T10:14:39.856Z,18400.00
2018-07-17T10:15:39.861Z,19296.00
2018-07-17T10:16:39.713Z,19904.00
2018-07-17T10:17:39.665Z,20448.00
2018-07-17T10:18:39.707Z,20928.00
2018-07-17T10:19:39.599Z,21248.00
2018-07-17T10:20:39.640Z,22016.00
2018-07-17T10:21:39.656Z,22144.00
2018-07-17T10:22:39.611Z,21952.00
2018-07-17T10:23:39.563Z,21280.00
2018-07-17T10:24:39.602Z,20576.00
2018-07-17T10:25:39.539Z,19808.00
2018-07-17T10:26:39.612Z,19232.00
2018-07-17T10:27:39.589Z,18592.00
2018-07-17T10:28:39.567Z,18016.00
2018-07-17T10:29:39.554Z,17272.00
2018-07-17T10:30:39.534Z,16404.00
2018-07-17T10:31:39.525Z,15280.00
2018-07-17T10:32:39.519Z,14456.00
2018-07-17T10:33:39.477Z,13972.00
2018-07-17T10:34:39.493Z,13272.00
2018-07-17T10:35:39.490Z,12656.00
2018-07-17T10:36:39.471Z,12152.00
2018-07-17T10:37:39.468Z,11708.00
2018-07-17T10:38:39.539Z,11300.00
2018-07-17T10:39:39.441Z,10944.00
2018-07-17T10:40:39.438Z,10656.00
2018-07-17T10:41:39.422Z,10432.00
2018-07-17T10:42:39.406Z,10220.00
2018-07-17T10:43:39.397Z,10004.00
2018-07-17T10:44:39.499Z,9768.00
2018-07-17T10:45:39.375Z,9648.00
2018-07-17T10:46:39.371Z,9556.00
2018-07-17T10:47:39.493Z,9432.00
2018-07-17T10:48:39.346Z,9252.00
2018-07-17T10:49:39.343Z,9100.00
2018-07-17T10:50:39.353Z,8996.00
2018-07-17T10:51:39.317Z,8904.00
2018-07-17T10:52:39.312Z,8856.00
2018-07-17T10:53:39.308Z,8836.00
2018-07-17T10:54:39.282Z,8788.00
2018-07-17T10:55:39.302Z,8728.00
2018-07-17T10:56:39.264Z,8692.00
2018-07-17T10:57:39.252Z,8644.00
2018-07-17T10:58:39.248Z,8584.00
2018-07-17T10:59:39.228Z,8580.00
2018-07-17T11:00:39.245Z,8560.00
2018-07-17T11:01:39.222Z,8516.00
2018-07-17T11:02:39.200Z,8408.00
2018-07-17T11:03:39.195Z,8272.00
2018-07-17T11:04:39.140Z,8296.00
2018-07-17T11:05:39.215Z,8344.00
2018-07-17T11:06:39.164Z,8312.00
2018-07-17T11:07:39.155Z,8220.00
2018-07-17T11:08:39.139Z,8100.00
2018-07-17T11:09:39.146Z,7964.00
2018-07-17T11:10:39.132Z,7872.00
2018-07-17T11:11:39.139Z,7792.00
2018-07-17T11:12:39.069Z,7704.00
2018-07-17T11:13:39.097Z,7724.00
2018-07-17T11:14:39.085Z,7732.00
2018-07-17T11:15:39.082Z,7760.00
2018-07-17T11:16:39.044Z,7808.00
2018-07-17T11:17:39.052Z,7848.00
2018-07-17T11:18:39.103Z,7940.00
2018-07-17T11:19:39.038Z,8096.00
2018-07-17T11:20:38.976Z,8308.00
2018-07-17T11:21:39.038Z,8552.00
2018-07-17T11:22:38.962Z,8652.00
2018-07-17T11:23:38.996Z,8736.00
2018-07-17T11:24:39.037Z,8784.00
2018-07-17T11:25:38.967Z,8852.00
2018-07-17T11:26:38.945Z,8788.00
2018-07-17T11:27:38.954Z,8660.00
2018-07-17T11:28:38.980Z,8456.00
2018-07-17T11:29:38.927Z,8280.00
2018-07-17T11:30:38.916Z,8204.00
2018-07-17T11:31:38.942Z,8092.00
2018-07-17T11:32:38.902Z,7708.00
2018-07-17T11:33:38.850Z,7456.00
2018-07-17T11:34:38.875Z,7200.00
2018-07-17T11:35:38.862Z,7104.00
2018-07-17T11:36:38.887Z,7300.00
2018-07-17T11:37:38.843Z,8116.00
2018-07-17T11:38:38.890Z,9088.00
2018-07-17T11:39:38.836Z,10092.00
2018-07-17T11:40:38.820Z,10296.00
2018-07-17T11:41:38.842Z,10320.00
2018-07-17T11:42:38.787Z,10308.00
2018-07-17T11:43:38.787Z,10152.00
2018-07-17T11:44:38.777Z,9844.00
2018-07-17T11:45:38.762Z,9264.00
2018-07-17T11:46:38.829Z,8872.00
2018-07-17T11:47:38.746Z,8548.00
2018-07-17T11:48:38.729Z,8404.00
2018-07-17T11:49:38.697Z,8080.00
2018-07-17T11:50:38.719Z,8200.00
2018-07-17T11:51:38.731Z,8260.00
2018-07-17T11:52:38.695Z,8296.00
2018-07-17T11:53:38.708Z,8272.00
2018-07-17T11:54:38.672Z,8540.00
2018-07-17T11:55:38.617Z,8488.00
2018-07-17T11:56:38.688Z,9056.00
2018-07-17T11:57:38.713Z,8876.00
2018-07-17T11:58:38.632Z,8144.00
2018-07-17T11:59:38.696Z,8060.00
2018-07-17T12:00:38.611Z,7920.00
2018-07-17T12:01:38.586Z,7916.00
2018-07-17T12:02:38.592Z,8232.00
2018-07-17T12:03:38.592Z,7968.00
2018-07-17T12:04:38.576Z,7876.00
2018-07-17T12:05:38.663Z,8132.00
2018-07-17T12:06:38.538Z,8768.00
2018-07-17T12:07:38.550Z,9368.00
2018-07-17T12:08:38.531Z,9520.00
2018-07-17T12:09:38.524Z,10084.00
2018-07-17T12:10:38.515Z,10636.00
2018-07-17T12:11:38.664Z,10308.00
2018-07-17T12:12:38.544Z,10860.00
2018-07-17T12:13:38.482Z,11904.00
2018-07-17T12:14:38.471Z,12116.00
2018-07-17T12:15:38.466Z,11664.00